createdAt,value
2023-03-29T00:00:21.909Z,62.22
2023-03-29T00:02:48.966Z,62.48
2023-03-29T00:05:25.725Z,62.06
2023-03-29T00:07:54.374Z,62.17
2023-03-29T00:10:24.983Z,62.17
2023-03-29T00:12:52.681Z,61.92
2023-03-29T00:15:20.175Z,62.22
2023-03-29T00:17:47.020Z,62.01
2023-03-29T00:20:14.265Z,61.94
2023-03-29T00:22:46.699Z,62.31
2023-03-29T00:25:14.142Z,62.25
2023-03-29T00:27:41.230Z,62.23
2023-03-29T00:30:10.282Z,62.77
2023-03-29T00:32:37.854Z,62.30
2023-03-29T00:35:07.847Z,62.75
2023-03-29T00:37:34.671Z,62.57
2023-03-29T00:40:01.565Z,62.39
2023-03-29T00:42:28.629Z,62.99
2023-03-29T00:45:01.953Z,62.55
2023-03-29T00:47:38.487Z,62.74
2023-03-29T00:50:12.919Z,62.88
2023-03-29T00:52:42.527Z,62.72
2023-03-29T00:55:15.872Z,62.53
2023-03-29T00:57:46.868Z,62.72
2023-03-29T01:00:21.009Z,62.69
2023-03-29T01:02:54.467Z,63.41
2023-03-29T01:05:32.737Z,63.54
2023-03-29T01:08:05.439Z,63.32
2023-03-29T01:10:41.530Z,63.13
2023-03-29T01:13:15.201Z,63.32
2023-03-29T01:15:45.651Z,63.31
2023-03-29T01:18:12.776Z,62.97
2023-03-29T01:21:09.022Z,63.45
2023-03-29T01:24:07.108Z,63.29
2023-03-29T01:26:57.214Z,63.57
2023-03-29T01:29:50.166Z,63.43
2023-03-29T01:32:22.738Z,63.21
2023-03-29T01:34:59.974Z,63.15
2023-03-29T01:37:29.056Z,63.28
2023-03-29T01:39:55.793Z,63.09
2023-03-29T01:42:58.051Z,62.99
2023-03-29T01:45:31.827Z,63.20
2023-03-29T01:48:07.440Z,62.77
2023-03-29T01:50:58.622Z,62.82
2023-03-29T01:53:45.917Z,62.75
2023-03-29T01:56:16.503Z,62.71
2023-03-29T01:58:46.974Z,62.40
2023-03-29T02:01:19.508Z,62.43
2023-03-29T02:03:51.154Z,62.30
2023-03-29T02:06:21.415Z,62.17
2023-03-29T02:08:48.846Z,62.31
2023-03-29T02:11:16.373Z,62.29
2023-03-29T02:13:43.115Z,62.11
2023-03-29T02:16:15.168Z,61.96
2023-03-29T02:18:46.908Z,61.68
2023-03-29T02:21:24.271Z,62.05
2023-03-29T02:23:54.984Z,61.63
2023-03-29T02:26:24.344Z,62.00
2023-03-29T02:28:52.997Z,61.75
2023-03-29T02:31:54.616Z,61.39
2023-03-29T02:34:26.925Z,61.57
2023-03-29T02:37:00.993Z,61.58
2023-03-29T02:39:32.250Z,61.25
2023-03-29T02:41:59.657Z,61.43
2023-03-29T02:44:30.807Z,61.64
2023-03-29T02:47:03.817Z,61.46
2023-03-29T02:49:31.061Z,61.53
2023-03-29T02:52:07.615Z,61.53
2023-03-29T02:54:37.993Z,61.59
2023-03-29T02:57:08.658Z,61.89
2023-03-29T02:59:36.328Z,61.95
2023-03-29T03:02:03.423Z,61.71
2023-03-29T03:04:31.805Z,61.65
2023-03-29T03:06:58.523Z,61.83
2023-03-29T03:09:27.464Z,61.73
2023-03-29T03:11:54.558Z,61.82
2023-03-29T03:14:22.989Z,62.17
2023-03-29T03:16:50.571Z,62.53
2023-03-29T03:19:18.026Z,62.65
2023-03-29T03:21:45.625Z,62.67
2023-03-29T03:24:16.094Z,63.00
2023-03-29T03:26:44.925Z,63.00
2023-03-29T03:29:12.204Z,63.17
2023-03-29T03:31:41.438Z,63.18
2023-03-29T03:34:09.053Z,63.44
2023-03-29T03:36:36.070Z,63.98
2023-03-29T03:39:06.010Z,64.16
2023-03-29T03:41:34.338Z,64.56
2023-03-29T03:44:01.213Z,64.97
2023-03-29T03:46:29.488Z,64.88
2023-03-29T03:48:56.730Z,65.21
2023-03-29T03:51:23.418Z,65.11
2023-03-29T03:53:50.116Z,65.27
2023-03-29T03:56:18.087Z,65.33
2023-03-29T03:58:44.866Z,65.24
2023-03-29T04:01:11.958Z,65.01
2023-03-29T04:03:39.490Z,64.83
2023-03-29T04:06:06.730Z,64.78
2023-03-29T04:08:33.486Z,65.01
2023-03-29T04:11:00.599Z,65.02
2023-03-29T04:13:27.980Z,64.85
2023-03-29T04:15:58.792Z,64.88
2023-03-29T04:18:27.836Z,64.88
2023-03-29T04:20:54.601Z,64.84
2023-03-29T04:23:21.332Z,65.16
2023-03-29T04:25:48.458Z,64.75
2023-03-29T04:28:15.535Z,65.02
2023-03-29T04:30:42.506Z,64.85
2023-03-29T04:33:09.770Z,64.84
2023-03-29T04:35:36.611Z,64.58
2023-03-29T04:38:04.537Z,64.61
2023-03-29T04:40:35.810Z,64.22
2023-03-29T04:43:02.698Z,64.13
2023-03-29T04:45:29.535Z,64.10
2023-03-29T04:47:59.880Z,63.70
2023-03-29T04:50:26.752Z,63.21
2023-03-29T04:52:53.530Z,63.19
2023-03-29T04:55:20.709Z,63.18
2023-03-29T04:57:47.411Z,62.88
2023-03-29T05:00:15.400Z,63.11
2023-03-29T05:02:44.517Z,62.81
2023-03-29T05:05:11.837Z,62.66
2023-03-29T05:07:38.819Z,62.44
2023-03-29T05:10:06.264Z,62.48
2023-03-29T05:12:33.198Z,62.54
2023-03-29T05:14:59.955Z,62.48
2023-03-29T05:17:27.840Z,62.10
2023-03-29T05:19:55.102Z,62.11
2023-03-29T05:22:21.849Z,61.98
2023-03-29T05:24:49.061Z,62.06
2023-03-29T05:27:17.291Z,62.09
2023-03-29T05:29:45.017Z,62.12
2023-03-29T05:32:13.795Z,61.56
2023-03-29T05:34:40.705Z,61.85
2023-03-29T05:37:07.764Z,61.65
2023-03-29T05:39:37.566Z,61.79
2023-03-29T05:42:04.824Z,61.51
2023-03-29T05:44:31.656Z,61.66
2023-03-29T05:46:58.661Z,61.40
2023-03-29T05:49:25.694Z,61.65
2023-03-29T05:51:57.013Z,61.13
2023-03-29T05:54:24.672Z,61.15
2023-03-29T05:56:52.017Z,60.97
2023-03-29T05:59:19.864Z,60.98
2023-03-29T06:01:50.151Z,60.97
2023-03-29T06:04:18.262Z,60.80
2023-03-29T06:06:45.061Z,60.73
2023-03-29T06:09:12.360Z,60.09
2023-03-29T06:11:39.376Z,60.03
2023-03-29T06:14:06.442Z,59.99
2023-03-29T06:16:33.785Z,60.21
2023-03-29T06:19:00.866Z,59.96
2023-03-29T06:21:28.634Z,59.50
2023-03-29T06:23:56.005Z,59.19
2023-03-29T06:26:22.850Z,59.25
2023-03-29T06:28:52.113Z,59.39
2023-03-29T06:31:20.149Z,58.75
2023-03-29T06:33:47.361Z,59.07
2023-03-29T06:36:16.328Z,59.04
2023-03-29T06:38:45.838Z,58.99
2023-03-29T06:41:12.541Z,58.74
2023-03-29T06:43:39.473Z,58.37
2023-03-29T06:46:12.338Z,57.76
2023-03-29T06:48:39.923Z,57.29
2023-03-29T06:51:07.779Z,57.02
2023-03-29T06:53:37.594Z,56.77
2023-03-29T06:56:09.470Z,56.26
2023-03-29T06:58:37.015Z,55.84
2023-03-29T07:01:04.866Z,55.78
2023-03-29T07:03:34.067Z,55.49
2023-03-29T07:06:04.132Z,54.81
2023-03-29T07:08:35.574Z,54.25
2023-03-29T07:11:03.720Z,53.80
2023-03-29T07:13:33.110Z,53.37
2023-03-29T07:16:00.335Z,53.36
2023-03-29T07:18:27.263Z,53.00
2023-03-29T07:20:54.344Z,52.17
2023-03-29T07:23:21.872Z,52.11
2023-03-29T07:25:49.319Z,52.19
2023-03-29T07:28:16.090Z,52.12
2023-03-29T07:30:43.025Z,51.74
2023-03-29T07:33:11.210Z,51.75
2023-03-29T07:35:38.505Z,51.89
2023-03-29T07:38:08.190Z,51.10
2023-03-29T07:40:35.290Z,50.92
2023-03-29T07:43:07.459Z,50.51
2023-03-29T07:45:34.462Z,50.28
2023-03-29T07:48:02.216Z,50.25
2023-03-29T07:50:32.595Z,50.31
2023-03-29T07:53:01.322Z,50.31
2023-03-29T07:55:28.772Z,49.82
2023-03-29T07:57:55.714Z,49.44
2023-03-29T08:00:25.286Z,49.09
2023-03-29T08:02:52.688Z,48.51
2023-03-29T08:05:37.902Z,48.69
2023-03-29T08:08:10.131Z,48.58
2023-03-29T08:10:41.842Z,48.65
2023-03-29T08:13:11.846Z,48.56
2023-03-29T08:15:40.262Z,49.29
2023-03-29T08:18:08.287Z,50.41
2023-03-29T08:20:35.419Z,51.69
2023-03-29T08:23:02.669Z,52.96
2023-03-29T08:25:29.640Z,53.85
2023-03-29T08:27:56.924Z,54.68
2023-03-29T08:30:28.162Z,55.37
2023-03-29T08:32:55.479Z,55.81
2023-03-29T08:35:22.814Z,56.17
2023-03-29T08:37:49.972Z,56.51
2023-03-29T08:40:24.814Z,56.54
2023-03-29T08:43:15.863Z,56.43
2023-03-29T08:46:02.283Z,55.94
2023-03-29T08:48:37.618Z,55.88
2023-03-29T08:51:34.724Z,55.78
2023-03-29T08:54:14.619Z,55.37
2023-03-29T08:56:44.932Z,55.46
2023-03-29T08:59:21.191Z,55.22
2023-03-29T09:01:50.534Z,55.13
2023-03-29T09:04:25.728Z,54.42
2023-03-29T09:06:52.968Z,53.78
2023-03-29T09:09:22.853Z,52.71
2023-03-29T09:12:04.168Z,52.42
2023-03-29T09:14:45.134Z,50.91
2023-03-29T09:17:53.893Z,50.37
2023-03-29T09:20:23.084Z,49.60
2023-03-29T09:23:20.059Z,48.99
2023-03-29T09:26:01.000Z,48.16
2023-03-29T09:28:41.202Z,47.98
2023-03-29T09:31:16.755Z,47.84
2023-03-29T09:33:50.690Z,47.82
2023-03-29T09:36:24.121Z,47.57
2023-03-29T09:38:54.642Z,47.58
2023-03-29T09:41:28.054Z,47.01
2023-03-29T09:43:57.922Z,46.30
2023-03-29T09:46:44.149Z,45.75
2023-03-29T09:49:33.431Z,45.18
2023-03-29T09:52:05.982Z,44.86
2023-03-29T09:54:33.948Z,44.67
2023-03-29T09:57:01.285Z,44.36
2023-03-29T09:59:29.356Z,44.93
2023-03-29T10:02:10.331Z,44.99
2023-03-29T10:04:38.667Z,45.06
2023-03-29T10:07:19.480Z,45.42
2023-03-29T10:09:47.651Z,45.86
2023-03-29T10:12:16.179Z,46.01
2023-03-29T10:14:49.861Z,45.92
2023-03-29T10:17:29.662Z,45.82
2023-03-29T10:19:58.592Z,44.58
2023-03-29T10:22:35.283Z,44.17
2023-03-29T10:25:03.018Z,43.73
2023-03-29T10:27:32.388Z,43.29
2023-03-29T10:30:01.180Z,43.49
2023-03-29T10:32:34.968Z,43.63
2023-03-29T10:35:25.192Z,43.44
2023-03-29T10:37:56.058Z,43.38
2023-03-29T10:40:32.316Z,43.53
2023-03-29T10:43:03.979Z,43.78
2023-03-29T10:45:35.337Z,43.74
2023-03-29T10:48:05.336Z,43.27
2023-03-29T10:50:35.572Z,43.11
2023-03-29T10:53:03.312Z,43.08
2023-03-29T10:55:43.630Z,43.09
2023-03-29T10:58:19.592Z,42.97
2023-03-29T11:00:57.303Z,42.64
2023-03-29T11:03:51.247Z,42.66
2023-03-29T11:06:41.401Z,42.83
2023-03-29T11:09:23.564Z,42.70
2023-03-29T11:12:24.934Z,42.23
2023-03-29T11:15:14.797Z,42.03
2023-03-29T11:17:53.715Z,41.77
2023-03-29T11:20:29.292Z,41.91
2023-03-29T11:23:16.871Z,42.16
2023-03-29T11:25:56.311Z,42.30
2023-03-29T11:28:38.044Z,41.82
2023-03-29T11:31:10.640Z,41.55
2023-03-29T11:33:52.986Z,41.30
2023-03-29T11:36:39.048Z,40.89
2023-03-29T11:39:30.061Z,40.17
2023-03-29T11:42:07.936Z,40.40
2023-03-29T11:44:36.850Z,40.10
2023-03-29T11:47:10.706Z,40.35
2023-03-29T11:49:43.445Z,40.56
2023-03-29T11:52:24.556Z,39.93
2023-03-29T11:55:18.450Z,39.18
2023-03-29T11:57:57.030Z,38.71
2023-03-29T12:00:33.155Z,38.13
2023-03-29T12:03:37.264Z,37.78
2023-03-29T12:06:19.282Z,37.94
2023-03-29T12:08:57.380Z,37.65
2023-03-29T12:11:38.137Z,37.80
2023-03-29T12:14:36.128Z,38.66
2023-03-29T12:17:10.524Z,38.41
2023-03-29T12:19:51.416Z,38.32
2023-03-29T12:22:21.467Z,38.59
2023-03-29T12:24:52.661Z,38.71
2023-03-29T12:27:26.550Z,37.99
2023-03-29T12:30:15.107Z,38.26
2023-03-29T12:32:51.270Z,38.30
2023-03-29T12:35:30.494Z,38.31
2023-03-29T12:38:19.639Z,38.08
2023-03-29T12:40:48.960Z,37.78
2023-03-29T12:43:24.440Z,37.43
2023-03-29T12:46:10.255Z,36.98
2023-03-29T12:48:40.619Z,36.78
2023-03-29T12:51:23.550Z,36.84
2023-03-29T12:53:56.093Z,36.57
2023-03-29T12:56:37.102Z,36.63
2023-03-29T12:59:27.975Z,36.27
2023-03-29T13:02:10.832Z,36.60
2023-03-29T13:04:44.718Z,36.63
2023-03-29T13:07:25.722Z,36.54
2023-03-29T13:09:55.735Z,35.79
2023-03-29T13:12:32.968Z,35.46
2023-03-29T13:15:03.928Z,35.64
2023-03-29T13:17:49.496Z,35.73
2023-03-29T13:20:40.446Z,35.97
2023-03-29T13:23:32.481Z,35.50
2023-03-29T13:26:23.567Z,35.69
2023-03-29T13:29:15.172Z,35.20
2023-03-29T13:32:15.869Z,34.78
2023-03-29T13:34:53.376Z,34.91
2023-03-29T13:37:39.015Z,34.98
2023-03-29T13:40:28.593Z,34.54
2023-03-29T13:43:22.359Z,34.69
2023-03-29T13:45:58.545Z,34.07
2023-03-29T13:48:38.665Z,34.12
2023-03-29T13:51:29.838Z,34.31
2023-03-29T13:54:03.496Z,34.43
2023-03-29T13:56:52.573Z,34.73
2023-03-29T13:59:25.853Z,34.88
2023-03-29T14:02:03.069Z,34.34
2023-03-29T14:04:44.284Z,34.22
2023-03-29T14:07:14.886Z,34.27
2023-03-29T14:09:49.004Z,33.95
2023-03-29T14:12:16.171Z,34.52
2023-03-29T14:14:58.364Z,34.31
2023-03-29T14:17:27.322Z,34.39
2023-03-29T14:19:58.289Z,33.92
2023-03-29T14:22:31.162Z,34.09
2023-03-29T14:25:02.612Z,34.30
2023-03-29T14:27:32.237Z,34.04
2023-03-29T14:29:59.300Z,33.89
2023-03-29T14:32:31.462Z,33.87
2023-03-29T14:34:58.997Z,34.04
2023-03-29T14:37:28.633Z,34.24
2023-03-29T14:39:56.742Z,33.82
2023-03-29T14:42:29.087Z,33.71
2023-03-29T14:45:06.480Z,33.84
2023-03-29T14:47:35.177Z,33.80
2023-03-29T14:50:02.744Z,33.91
2023-03-29T14:52:31.270Z,33.82
2023-03-29T14:55:04.489Z,33.86
2023-03-29T14:57:36.671Z,33.28
2023-03-29T15:00:20.999Z,33.58
2023-03-29T15:02:55.353Z,33.42
2023-03-29T15:05:44.667Z,33.54
2023-03-29T15:08:19.988Z,33.53
2023-03-29T15:10:47.501Z,33.47
2023-03-29T15:13:24.640Z,33.28
2023-03-29T15:15:57.020Z,33.45
2023-03-29T15:18:36.347Z,33.13
2023-03-29T15:21:03.794Z,33.40
2023-03-29T15:24:01.345Z,33.41
2023-03-29T15:26:38.021Z,33.80
2023-03-29T15:29:12.996Z,33.79
2023-03-29T15:31:42.502Z,34.06
2023-03-29T15:34:24.122Z,33.89
2023-03-29T15:36:52.319Z,33.51
2023-03-29T15:39:20.117Z,33.42
2023-03-29T15:41:49.486Z,33.54
2023-03-29T15:44:18.316Z,33.67
2023-03-29T15:46:45.105Z,33.68
2023-03-29T15:49:12.953Z,33.96
2023-03-29T15:51:41.002Z,33.93
2023-03-29T15:54:09.274Z,33.88
2023-03-29T15:56:44.470Z,33.49
2023-03-29T15:59:12.395Z,33.65
2023-03-29T16:01:39.403Z,33.60
2023-03-29T16:04:21.237Z,33.79
2023-03-29T16:06:50.253Z,33.63
2023-03-29T16:09:17.285Z,33.77
2023-03-29T16:11:46.389Z,33.50
2023-03-29T16:14:12.965Z,33.38
2023-03-29T16:16:39.720Z,33.56
2023-03-29T16:19:06.819Z,33.48
2023-03-29T16:21:33.542Z,33.86
2023-03-29T16:24:00.371Z,33.50
2023-03-29T16:26:27.656Z,33.50
2023-03-29T16:28:54.392Z,33.54
2023-03-29T16:31:21.096Z,33.42
2023-03-29T16:33:48.539Z,33.87
2023-03-29T16:36:15.244Z,34.00
2023-03-29T16:38:42.097Z,34.14
2023-03-29T16:41:17.311Z,33.53
2023-03-29T16:43:44.455Z,33.88
2023-03-29T16:46:12.322Z,34.02
2023-03-29T16:48:39.444Z,33.88
2023-03-29T16:51:07.151Z,34.20
2023-03-29T16:53:37.674Z,34.17
2023-03-29T16:56:05.130Z,34.40
2023-03-29T16:58:32.450Z,34.57
2023-03-29T17:01:07.788Z,34.85
2023-03-29T17:03:36.303Z,35.04
2023-03-29T17:06:04.635Z,35.64
2023-03-29T17:08:33.799Z,35.78
2023-03-29T17:11:01.124Z,36.34
2023-03-29T17:13:28.240Z,36.57
2023-03-29T17:15:56.302Z,36.81
2023-03-29T17:18:26.443Z,37.03
2023-03-29T17:20:58.863Z,36.99
2023-03-29T17:23:27.520Z,37.43
2023-03-29T17:26:01.741Z,37.70
2023-03-29T17:28:29.534Z,37.70
2023-03-29T17:30:57.421Z,37.96
2023-03-29T17:33:28.607Z,37.71
2023-03-29T17:35:56.227Z,38.22
2023-03-29T17:38:23.079Z,38.12
2023-03-29T17:40:54.416Z,38.21
2023-03-29T17:43:33.290Z,38.33
2023-03-29T17:46:00.321Z,38.60
2023-03-29T17:48:28.455Z,38.81
2023-03-29T17:50:57.183Z,38.71
2023-03-29T17:53:24.443Z,38.98
2023-03-29T17:55:55.051Z,39.35
2023-03-29T17:58:34.968Z,39.21
2023-03-29T18:01:10.822Z,39.41
2023-03-29T18:03:38.688Z,39.42
2023-03-29T18:06:53.864Z,39.82
2023-03-29T18:09:00.568Z,39.88
2023-03-29T18:11:42.846Z,40.43
2023-03-29T18:14:16.829Z,41.19
2023-03-29T18:16:43.616Z,41.32
2023-03-29T18:23:21.057Z,41.70
2023-03-29T18:29:39.296Z,42.29
2023-03-29T18:32:30.989Z,42.75
2023-03-29T18:35:28.427Z,43.15
2023-03-29T18:37:57.074Z,43.40
2023-03-29T18:40:26.509Z,43.59
2023-03-29T18:45:47.723Z,43.91
2023-03-29T18:48:45.560Z,44.39
2023-03-29T18:51:28.777Z,44.55
2023-03-29T18:53:59.846Z,45.03
2023-03-29T18:56:34.843Z,45.47
2023-03-29T18:59:05.570Z,45.40
2023-03-29T19:01:33.363Z,45.61
2023-03-29T19:04:00.503Z,45.98
2023-03-29T19:06:52.785Z,46.13
2023-03-29T19:09:18.324Z,46.51
2023-03-29T19:15:22.816Z,46.55
2023-03-29T19:17:49.937Z,46.64
2023-03-29T19:20:18.508Z,47.06
2023-03-29T19:22:45.781Z,47.09
2023-03-29T19:25:12.691Z,47.44
2023-03-29T19:27:44.494Z,47.60
2023-03-29T19:30:11.673Z,47.87
2023-03-29T19:32:38.712Z,48.20
2023-03-29T19:35:07.328Z,48.00
2023-03-29T19:38:09.519Z,48.30
2023-03-29T19:40:43.230Z,48.16
2023-03-29T19:43:14.438Z,48.37
2023-03-29T19:45:41.165Z,48.25
2023-03-29T19:50:46.590Z,49.05
2023-03-29T19:53:13.649Z,49.09
2023-03-29T19:55:42.553Z,49.38
2023-03-29T19:58:09.653Z,49.50
2023-03-29T20:00:38.895Z,49.76
2023-03-29T20:03:09.505Z,50.00
2023-03-29T20:05:38.969Z,50.33
2023-03-29T20:08:35.818Z,50.48
2023-03-29T20:11:04.138Z,50.69
2023-03-29T20:13:38.250Z,50.96
2023-03-29T20:16:08.315Z,50.94
2023-03-29T20:18:35.084Z,50.95
2023-03-29T20:21:02.265Z,50.91
2023-03-29T20:23:30.129Z,51.06
2023-03-29T20:25:57.418Z,51.23
2023-03-29T20:28:25.141Z,51.28
2023-03-29T20:30:52.924Z,51.67
2023-03-29T20:33:20.702Z,51.70
2023-03-29T20:35:49.346Z,51.58
2023-03-29T20:38:16.397Z,51.78
2023-03-29T20:40:43.342Z,52.04
2023-03-29T20:43:13.462Z,51.97
2023-03-29T20:45:52.622Z,51.73
2023-03-29T20:48:24.864Z,52.42
2023-03-29T20:50:52.356Z,52.22
2023-03-29T20:53:20.586Z,52.54
2023-03-29T20:55:48.979Z,52.75
2023-03-29T20:58:16.100Z,52.67
2023-03-29T21:00:43.677Z,52.90
2023-03-29T21:03:11.241Z,52.54
2023-03-29T21:05:39.125Z,52.76
2023-03-29T21:08:06.128Z,52.80
2023-03-29T21:10:32.996Z,53.03
2023-03-29T21:13:00.549Z,53.21
2023-03-29T21:15:29.505Z,53.14
2023-03-29T21:17:56.920Z,53.28
2023-03-29T21:20:24.705Z,53.40
2023-03-29T21:22:51.720Z,53.55
2023-03-29T21:25:19.164Z,53.38
2023-03-29T21:27:46.600Z,53.42
2023-03-29T21:30:13.716Z,53.92
2023-03-29T21:32:41.298Z,54.04
2023-03-29T21:35:08.920Z,53.76
2023-03-29T21:37:35.753Z,54.24
2023-03-29T21:40:06.054Z,54.26
2023-03-29T21:42:34.122Z,54.39
2023-03-29T21:45:01.065Z,54.34
2023-03-29T21:47:28.053Z,54.67
2023-03-29T21:49:54.787Z,54.62
2023-03-29T21:52:21.680Z,54.56
2023-03-29T21:54:48.645Z,54.95
2023-03-29T21:57:15.530Z,54.95
2023-03-29T21:59:42.472Z,55.22
2023-03-29T22:02:09.621Z,55.20
2023-03-29T22:04:37.692Z,55.26
2023-03-29T22:07:05.903Z,55.14
2023-03-29T22:09:35.037Z,55.30
2023-03-29T22:12:03.052Z,55.44
2023-03-29T22:14:31.806Z,55.52
2023-03-29T22:16:58.698Z,55.46
2023-03-29T22:19:25.812Z,55.77
2023-03-29T22:21:52.585Z,55.78
2023-03-29T22:24:19.445Z,55.63
2023-03-29T22:26:46.643Z,55.92
2023-03-29T22:29:13.352Z,55.98
2023-03-29T22:31:40.410Z,55.84
2023-03-29T22:34:07.576Z,55.95
2023-03-29T22:36:36.987Z,56.33
2023-03-29T22:39:05.056Z,56.49
2023-03-29T22:41:31.800Z,56.27
2023-03-29T22:44:01.213Z,56.60
2023-03-29T22:46:28.441Z,56.39
2023-03-29T22:48:55.799Z,56.45
2023-03-29T22:51:22.590Z,56.67
2023-03-29T22:53:49.448Z,56.33
2023-03-29T22:56:17.251Z,56.55
2023-03-29T22:58:44.477Z,56.54
2023-03-29T23:01:12.030Z,56.96
2023-03-29T23:03:39.088Z,56.59
2023-03-29T23:06:07.193Z,56.79
2023-03-29T23:08:35.368Z,56.71
2023-03-29T23:11:02.631Z,56.94
2023-03-29T23:13:30.119Z,56.93
2023-03-29T23:15:59.358Z,56.92
2023-03-29T23:18:28.832Z,57.03
2023-03-29T23:20:57.274Z,57.27
2023-03-29T23:23:25.707Z,57.25
2023-03-29T23:25:53.701Z,57.24
2023-03-29T23:28:23.717Z,57.46
2023-03-29T23:31:11.693Z,57.84
2023-03-29T23:33:42.780Z,57.78
2023-03-29T23:36:13.896Z,57.77
2023-03-29T23:38:42.338Z,57.66
2023-03-29T23:41:10.960Z,57.73
2023-03-29T23:43:43.288Z,57.63
2023-03-29T23:46:13.129Z,57.88
2023-03-29T23:48:40.094Z,57.87
2023-03-29T23:51:08.366Z,57.83
2023-03-29T23:53:35.106Z,57.84
2023-03-29T23:56:05.066Z,57.86
2023-03-29T23:58:34.938Z,58.03
